Time;durP1;ratioP1;P1;durP2;ratioP2;P2;SDS_P1;SDS_P2;PMS_P1;PMS_P2;Temp;Humidity;BMP_temperature;BMP_pressure;BME280_temperature;BME280_humidity;BME280_pressure;Samples;Min_cycle;Max_cycle;Signal;HPM_P1;HPM_P2
2021/09/15 00:01:59;;;;;;;12.43;6.38;;;;;;;21.92;45.33;99810.75;5050008;28;20020;-37
2021/09/15 00:04:25;;;;;;;10.30;6.28;;;;;;;21.91;45.10;99809.94;5049996;28;20025;-37
2021/09/15 00:06:50;;;;;;;12.48;6.40;;;;;;;21.95;45.37;99816.44;5049883;28;20110;-36
2021/09/15 00:09:16;;;;;;;11.18;6.18;;;;;;;21.90;45.64;99819.16;5050119;28;20068;-36
2021/09/15 00:11:41;;;;;;;15.70;6.53;;;;;;;21.96;45.58;99809.13;5049697;28;20434;-36
2021/09/15 00:14:07;;;;;;;9.88;6.05;;;;;;;21.97;45.36;99805.31;5050043;28;20225;-36
2021/09/15 00:16:32;;;;;;;9.57;6.10;;;;;;;21.90;45.47;99800.19;5050024;28;20032;-36
2021/09/15 00:18:58;;;;;;;9.40;5.90;;;;;;;21.95;45.62;99802.91;5049660;28;20044;-36
2021/09/15 00:21:24;;;;;;;8.93;5.70;;;;;;;21.89;45.27;99800.47;5049969;28;20021;-36
2021/09/15 00:23:49;;;;;;;12.80;5.85;;;;;;;21.91;45.48;99807.22;5050021;28;20090;-36
2021/09/15 00:26:15;;;;;;;9.13;6.30;;;;;;;21.79;45.69;99794.00;5050031;28;20591;-36
2021/09/15 00:28:40;;;;;;;9.63;6.28;;;;;;;21.72;46.17;99798.09;5048455;28;20021;-36
2021/09/15 00:31:05;;;;;;;9.68;6.05;;;;;;;21.80;45.64;99800.22;5049160;28;20032;-36
2021/09/15 00:33:31;;;;;;;9.80;6.07;;;;;;;21.75;45.53;99806.47;5050051;28;20025;-36
2021/09/15 00:35:56;;;;;;;10.15;6.18;;;;;;;21.74;46.13;99809.44;5049664;28;20448;-36
2021/09/15 00:38:22;;;;;;;10.90;5.55;;;;;;;21.68;45.39;99814.06;5049681;28;20032;-36
2021/09/15 00:40:47;;;;;;;13.85;5.82;;;;;;;21.66;45.41;99810.84;5049651;28;20036;-36
2021/09/15 00:43:13;;;;;;;9.15;5.63;;;;;;;21.65;45.96;99811.94;5049381;28;20083;-36
2021/09/15 00:45:38;;;;;;;7.38;5.63;;;;;;;21.70;45.32;99813.81;5049600;28;20094;-36
2021/09/15 00:48:04;;;;;;;12.30;5.68;;;;;;;21.60;46.12;99812.75;5049764;28;20029;-36
2021/09/15 00:50:29;;;;;;;11.27;5.85;;;;;;;21.47;46.08;99814.13;5049582;28;20463;-37
2021/09/15 00:52:55;;;;;;;8.13;5.90;;;;;;;21.35;46.38;99805.47;5049691;28;20064;-36
2021/09/15 00:55:20;;;;;;;8.05;5.68;;;;;;;21.51;46.24;99819.00;5049420;28;20110;-37
2021/09/15 00:57:46;;;;;;;10.77;5.80;;;;;;;21.52;46.04;99807.91;5048588;28;20041;-37
2021/09/15 01:00:12;;;;;;;7.65;5.60;;;;;;;21.52;46.49;99815.22;5049245;28;20524;-36
2021/09/15 01:02:37;;;;;;;8.27;5.80;;;;;;;21.44;46.59;99814.69;5049732;28;20025;-36
2021/09/15 01:05:03;;;;;;;9.88;6.22;;;;;;;21.42;46.16;99811.41;5049212;28;20056;-36
2021/09/15 01:07:29;;;;;;;9.30;5.88;;;;;;;21.27;46.62;99806.81;5049612;28;20036;-35
2021/09/15 01:09:54;;;;;;;7.63;6.20;;;;;;;21.31;46.23;99812.50;5049670;28;20025;-36
2021/09/15 01:12:20;;;;;;;8.55;5.95;;;;;;;21.42;46.19;99803.28;5047962;28;20111;-36
2021/09/15 01:14:45;;;;;;;8.43;5.80;;;;;;;21.40;46.16;99816.28;5031642;28;20036;-36
2021/09/15 01:17:11;;;;;;;9.50;6.10;;;;;;;21.50;45.94;99817.38;5049559;28;20656;-37
2021/09/15 01:19:36;;;;;;;7.55;5.63;;;;;;;21.39;45.94;99809.25;5049444;28;20174;-37
2021/09/15 01:22:02;;;;;;;8.95;5.57;;;;;;;21.40;46.01;99820.88;5049385;28;20037;-36
2021/09/15 01:24:29;;;;;;;10.23;6.38;;;;;;;21.28;45.83;99821.16;5049418;28;20037;-37
2021/09/15 01:26:55;;;;;;;10.43;6.15;;;;;;;21.33;45.45;99817.66;5049191;28;20036;-36
2021/09/15 01:29:25;;;;;;;8.43;6.10;;;;;;;21.08;46.02;99825.50;5049224;28;20079;-36
2021/09/15 01:32:00;;;;;;;10.38;5.75;;;;;;;21.06;45.72;99824.16;5049235;28;20033;-36
2021/09/15 01:34:26;;;;;;;9.27;6.15;;;;;;;21.12;45.84;99830.38;5049273;28;20104;-36
2021/09/15 01:36:52;;;;;;;13.10;6.28;;;;;;;21.20;45.52;99830.63;5048957;28;20029;-36
2021/09/15 01:39:17;;;;;;;8.73;6.10;;;;;;;21.19;46.01;99837.16;5048982;28;20390;-36
2021/09/15 01:41:42;;;;;;;8.90;5.95;;;;;;;21.16;46.56;99826.06;5049711;28;20025;-36
2021/09/15 01:44:08;;;;;;;7.70;5.68;;;;;;;21.14;46.19;99830.94;5052610;28;20430;-36
2021/09/15 01:46:33;;;;;;;10.57;6.20;;;;;;;21.15;45.85;99825.25;5052408;28;20040;-36
2021/09/15 01:48:59;;;;;;;8.18;5.75;;;;;;;21.08;46.37;99824.72;5052506;28;20079;-36
2021/09/15 01:51:24;;;;;;;9.90;6.20;;;;;;;21.07;45.54;99834.69;5052401;28;20037;-36
2021/09/15 01:53:50;;;;;;;10.25;6.80;;;;;;;20.81;46.29;99841.16;5052708;28;20508;-37
2021/09/15 01:56:15;;;;;;;11.07;6.30;;;;;;;20.88;45.98;99837.13;5052519;28;20047;-36
2021/09/15 01:58:41;;;;;;;8.65;6.47;;;;;;;20.94;45.77;99829.81;5052184;28;20024;-36
2021/09/15 02:01:06;;;;;;;12.77;5.90;;;;;;;20.91;45.62;99827.69;5052418;28;20036;-36
2021/09/15 02:03:32;;;;;;;12.13;6.40;;;;;;;20.97;45.67;99840.13;5052190;28;20374;-36
2021/09/15 02:05:57;;;;;;;8.00;6.07;;;;;;;20.83;45.98;99834.44;5052307;28;20106;-37
2021/09/15 02:08:22;;;;;;;9.48;6.10;;;;;;;20.77;45.52;99832.81;5052232;28;20025;-36
2021/09/15 02:10:48;;;;;;;7.65;6.20;;;;;;;20.80;45.85;99831.44;5053454;28;20472;-36
2021/09/15 02:13:13;;;;;;;9.98;6.32;;;;;;;20.56;46.72;99833.81;5052646;28;20196;-36
2021/09/15 02:15:39;;;;;;;8.50;6.03;;;;;;;20.63;45.96;99829.00;5053040;28;20025;-36
2021/09/15 02:18:04;;;;;;;7.85;6.00;;;;;;;20.48;46.10;99827.84;5051512;28;20029;-36
2021/09/15 02:20:30;;;;;;;12.98;6.65;;;;;;;20.47;46.01;99809.22;5052768;28;20453;-36
2021/09/15 02:22:55;;;;;;;8.35;6.30;;;;;;;20.65;44.78;99830.34;5052843;28;20020;-36
2021/09/15 02:25:21;;;;;;;9.65;6.40;;;;;;;20.64;44.38;99826.03;5052733;28;20033;-36
2021/09/15 02:27:46;;;;;;;10.43;5.82;;;;;;;20.54;44.92;99823.25;5052869;28;20036;-36
2021/09/15 02:30:12;;;;;;;8.48;6.50;;;;;;;20.65;44.49;99824.13;5052189;28;20074;-36
2021/09/15 02:32:37;;;;;;;9.32;6.03;;;;;;;20.53;44.63;99826.25;5052702;28;20418;-36
2021/09/15 02:35:03;;;;;;;12.40;6.75;;;;;;;20.38;44.28;99824.31;5052621;28;20051;-36
2021/09/15 02:37:28;;;;;;;9.57;6.60;;;;;;;20.52;44.02;99830.81;5052639;28;20083;-36
2021/09/15 02:39:54;;;;;;;8.88;6.85;;;;;;;20.65;43.90;99829.53;5052590;28;20140;-36
2021/09/15 02:42:19;;;;;;;10.20;7.15;;;;;;;20.37;43.70;99828.09;5051743;28;20484;-36
2021/09/15 02:44:45;;;;;;;13.60;7.72;;;;;;;20.17;44.81;99832.34;5052416;28;20025;-36
2021/09/15 02:47:10;;;;;;;12.77;7.35;;;;;;;20.42;44.20;99828.91;5052068;28;20033;-36
2021/09/15 02:49:35;;;;;;;11.98;7.88;;;;;;;20.38;44.74;99838.63;5052418;28;20025;-36
2021/09/15 02:52:01;;;;;;;12.65;7.93;;;;;;;20.58;44.10;99840.59;5052181;28;20090;-36
2021/09/15 02:54:26;;;;;;;12.77;8.05;;;;;;;20.65;44.62;99835.75;5051706;28;20033;-36
2021/09/15 02:56:52;;;;;;;14.13;8.50;;;;;;;20.69;44.55;99839.56;5052124;28;20029;-36
2021/09/15 02:59:17;;;;;;;14.60;8.15;;;;;;;20.37;44.74;99831.63;5052117;28;20491;-36
2021/09/15 03:01:43;;;;;;;13.25;7.68;;;;;;;20.18;44.98;99833.16;5052124;28;20033;-36
2021/09/15 03:04:09;;;;;;;13.25;7.85;;;;;;;20.25;44.82;99825.63;5051927;28;20033;-36
2021/09/15 03:06:34;;;;;;;12.88;7.32;;;;;;;20.00;45.56;99821.75;5051654;28;20079;-37
2021/09/15 03:08:59;;;;;;;104.85;75.15;;;;;;;20.03;45.31;99828.50;5051677;28;20047;-37
2021/09/15 03:11:25;;;;;;;13.40;9.82;;;;;;;20.10;45.09;99835.31;5051721;28;20036;-35
2021/09/15 03:13:50;;;;;;;13.65;8.77;;;;;;;20.16;44.96;99835.31;5051550;28;20115;-36
2021/09/15 03:16:16;;;;;;;10.00;7.30;;;;;;;20.14;45.14;99843.69;5051663;28;20033;-36
2021/09/15 03:18:41;;;;;;;12.27;6.90;;;;;;;20.17;45.30;99850.47;5051751;28;20033;-36
2021/09/15 03:21:07;;;;;;;9.25;6.82;;;;;;;20.37;44.98;99852.41;5051712;28;20040;-36
2021/09/15 03:23:32;;;;;;;12.55;7.18;;;;;;;20.13;45.41;99855.59;5051441;28;20479;-36
2021/09/15 03:25:58;;;;;;;11.07;7.20;;;;;;;20.04;45.77;99852.56;5051476;28;20039;-36
2021/09/15 03:28:23;;;;;;;11.02;7.97;;;;;;;20.12;45.18;99859.34;5051559;28;20025;-35
2021/09/15 03:30:49;;;;;;;12.73;7.85;;;;;;;20.33;44.60;99862.94;5051394;28;20029;-36
2021/09/15 03:33:14;;;;;;;11.68;7.75;;;;;;;20.47;44.55;99866.78;5051360;28;20033;-36
2021/09/15 03:35:40;;;;;;;14.00;8.40;;;;;;;20.58;44.12;99861.38;5051079;28;20441;-36
2021/09/15 03:38:05;;;;;;;14.48;8.43;;;;;;;20.53;44.11;99856.78;5050656;28;20029;-38
2021/09/15 03:40:31;;;;;;;12.75;8.30;;;;;;;20.17;44.83;99850.47;5049736;28;20052;-37
2021/09/15 03:42:56;;;;;;;12.32;8.15;;;;;;;20.15;44.85;99849.91;5050799;28;20029;-37
2021/09/15 03:45:21;;;;;;;17.25;9.23;;;;;;;20.28;44.34;99852.13;5050952;28;20405;-37
2021/09/15 03:47:47;;;;;;;14.70;9.73;;;;;;;20.27;44.54;99845.88;5050870;28;20025;-37
2021/09/15 03:50:12;;;;;;;9.63;7.32;;;;;;;20.13;44.60;99847.47;5051104;28;20017;-38
2021/09/15 03:52:38;;;;;;;11.55;7.07;;;;;;;20.29;44.73;99859.94;5049924;28;20033;-37
2021/09/15 03:55:04;;;;;;;11.27;6.55;;;;;;;20.32;44.01;99853.22;5050665;28;20381;-37
2021/09/15 03:57:29;;;;;;;10.10;7.05;;;;;;;20.31;44.12;99863.22;5050659;28;20032;-37
2021/09/15 03:59:55;;;;;;;15.98;6.97;;;;;;;20.37;43.81;99850.53;5050189;28;20045;-37
2021/09/15 04:02:20;;;;;;;13.00;6.97;;;;;;;20.33;44.20;99859.44;5050834;28;20382;-36
2021/09/15 04:04:45;;;;;;;10.88;6.80;;;;;;;20.47;44.81;99857.88;5048507;28;20139;-37
2021/09/15 04:07:11;;;;;;;9.38;7.22;;;;;;;20.51;44.12;99858.94;5035897;28;20040;-37
2021/09/15 04:09:36;;;;;;;12.90;7.40;;;;;;;20.53;44.37;99869.50;5050502;28;20033;-37
2021/09/15 04:12:02;;;;;;;15.43;7.18;;;;;;;20.51;43.66;99873.28;5050240;28;20048;-36
2021/09/15 04:14:28;;;;;;;14.25;7.75;;;;;;;20.49;43.69;99882.72;5050554;28;20033;-36
2021/09/15 04:16:53;;;;;;;14.13;7.90;;;;;;;20.41;44.02;99884.06;5049206;28;20040;-36
2021/09/15 04:19:19;;;;;;;12.32;7.72;;;;;;;20.33;44.55;99886.44;5030817;28;20434;-36
2021/09/15 04:21:44;;;;;;;18.35;8.10;;;;;;;20.45;45.08;99884.34;5030767;28;20083;-39
2021/09/15 04:24:28;;;;;;;19.95;8.80;;;;;;;20.57;44.67;99889.50;5030495;28;20394;-36
2021/09/15 04:32:12;;;;;;;16.75;6.32;;;;;;;20.85;43.39;99891.78;5041597;28;20395;-37
2021/09/15 04:34:37;;;;;;;20.05;7.13;;;;;;;21.07;42.61;99899.63;5041478;28;20485;-37
2021/09/15 04:37:02;;;;;;;10.95;6.50;;;;;;;21.15;42.34;99894.78;5033741;28;20021;-38
2021/09/15 04:39:28;;;;;;;12.95;6.63;;;;;;;21.35;41.84;99896.69;5049986;28;20142;-37
2021/09/15 04:41:53;;;;;;;11.88;6.40;;;;;;;21.57;41.79;99893.69;5050163;28;20032;-37
2021/09/15 04:44:19;;;;;;;32.28;21.35;;;;;;;21.80;40.99;99889.59;5049733;28;20079;-37
2021/09/15 04:46:44;;;;;;;24.38;16.73;;;;;;;21.97;40.60;99892.00;5049277;28;20028;-37
2021/09/15 04:49:11;;;;;;;14.57;7.60;;;;;;;22.15;40.31;99890.59;5048709;28;20021;-37
2021/09/15 04:51:36;;;;;;;16.20;6.60;;;;;;;22.34;40.14;99899.75;5049313;28;20025;-37
2021/09/15 04:54:01;;;;;;;19.23;12.43;;;;;;;22.43;40.07;99900.81;5049115;28;20021;-36
2021/09/15 04:56:27;;;;;;;25.98;17.80;;;;;;;22.65;40.39;99905.81;5048871;28;20028;-36
2021/09/15 04:58:52;;;;;;;18.05;8.25;;;;;;;22.86;39.43;99899.47;5048645;28;20029;-35
2021/09/15 05:01:18;;;;;;;13.27;7.25;;;;;;;23.02;39.50;99909.16;5048159;28;20441;-37
2021/09/15 05:03:43;;;;;;;14.32;7.03;;;;;;;23.07;39.54;99895.56;5048589;28;20042;-36
2021/09/15 05:06:09;;;;;;;13.80;6.50;;;;;;;23.35;38.77;99910.28;5048767;28;20036;-36
2021/09/15 05:08:34;;;;;;;12.23;6.30;;;;;;;23.34;37.81;99902.41;5048986;28;20021;-36
2021/09/15 05:11:00;;;;;;;9.98;6.57;;;;;;;23.50;38.01;99912.06;5049114;28;20032;-36
2021/09/15 05:13:25;;;;;;;13.52;6.60;;;;;;;23.84;37.46;99908.50;5049145;28;20445;-36
2021/09/15 05:15:50;;;;;;;9.98;6.50;;;;;;;24.20;36.58;99916.25;5049619;28;20029;-37
2021/09/15 05:18:16;;;;;;;9.98;6.22;;;;;;;24.48;36.05;99914.53;5053193;28;20021;-37
2021/09/15 05:20:41;;;;;;;13.43;7.35;;;;;;;24.82;35.40;99910.84;5052954;28;20028;-37
2021/09/15 05:23:07;;;;;;;11.23;6.38;;;;;;;25.10;34.93;99913.72;5052893;28;20086;-37
2021/09/15 05:25:32;;;;;;;10.20;6.45;;;;;;;25.27;34.85;99910.47;5052692;28;20114;-36
2021/09/15 05:27:58;;;;;;;10.18;6.47;;;;;;;25.61;33.92;99917.50;5052868;28;20036;-37
2021/09/15 05:30:24;;;;;;;14.23;6.72;;;;;;;25.80;33.67;99914.72;5052707;28;20041;-37
2021/09/15 05:32:49;;;;;;;14.60;6.82;;;;;;;26.21;33.35;99914.78;5051909;28;20086;-37
2021/09/15 05:35:15;;;;;;;12.88;6.47;;;;;;;26.54;32.34;99922.84;5050369;28;20028;-37
2021/09/15 05:37:40;;;;;;;12.43;6.15;;;;;;;26.68;31.75;99920.09;5051551;28;20074;-36
2021/09/15 05:40:06;;;;;;;16.95;11.30;;;;;;;27.00;31.13;99912.84;5051437;28;20033;-36
2021/09/15 05:42:32;;;;;;;18.27;13.27;;;;;;;27.50;30.82;99923.66;5052003;28;20029;-37
2021/09/15 05:45:02;;;;;;;10.45;7.13;;;;;;;27.69;30.74;99912.50;5051490;28;20021;-37
2021/09/15 05:47:29;;;;;;;13.05;7.38;;;;;;;28.05;29.91;99925.25;5050578;28;20453;-37
2021/09/15 05:49:54;;;;;;;13.98;7.07;;;;;;;27.83;30.52;99931.53;5051953;28;20086;-37
2021/09/15 05:52:19;;;;;;;30.50;7.93;;;;;;;28.29;29.60;99922.09;5052067;28;20024;-37
2021/09/15 05:54:45;;;;;;;85.47;59.10;;;;;;;28.61;28.99;99922.84;5052001;28;20033;-37
2021/09/15 05:57:10;;;;;;;17.10;10.10;;;;;;;28.89;28.80;99930.75;5051495;28;20033;-37
2021/09/15 05:59:36;;;;;;;11.27;7.20;;;;;;;29.31;28.53;99922.88;5051882;28;20443;-37
2021/09/15 06:02:01;;;;;;;11.10;7.22;;;;;;;29.52;27.86;99918.28;5051454;28;20045;-37
2021/09/15 06:04:27;;;;;;;13.45;7.97;;;;;;;29.89;27.55;99929.69;5051593;28;20053;-37
2021/09/15 06:06:52;;;;;;;13.52;7.50;;;;;;;30.33;27.15;99924.81;5051604;28;20056;-36
2021/09/15 06:09:18;;;;;;;14.77;7.55;;;;;;;30.30;26.62;99925.44;5051776;28;20045;-36
2021/09/15 06:11:43;;;;;;;12.23;6.60;;;;;;;30.82;25.88;99927.03;5049996;28;20370;-37
2021/09/15 06:14:09;;;;;;;17.52;6.95;;;;;;;31.16;25.41;99933.41;5051564;28;20155;-37
2021/09/15 06:16:34;;;;;;;14.40;7.00;;;;;;;31.34;24.95;99928.59;5051329;28;20040;-36
2021/09/15 06:19:00;;;;;;;11.90;6.38;;;;;;;31.34;25.09;99931.31;5051554;28;20531;-37
2021/09/15 06:21:25;;;;;;;9.98;6.18;;;;;;;31.33;25.14;99938.75;5051847;28;20406;-36
2021/09/15 06:23:52;;;;;;;14.40;6.32;;;;;;;30.88;25.39;99927.66;5051939;28;20048;-38
2021/09/15 06:26:18;;;;;;;12.38;5.93;;;;;;;31.15;24.94;99931.84;5051422;28;20421;-36
2021/09/15 06:28:43;;;;;;;12.18;6.10;;;;;;;31.22;25.21;99929.31;5050124;28;20033;-37
2021/09/15 06:31:09;;;;;;;10.77;5.75;;;;;;;31.22;24.95;99923.03;5051028;28;20029;-37
2021/09/15 06:33:34;;;;;;;13.57;6.07;;;;;;;30.14;26.60;99921.63;5050830;28;20031;-39
2021/09/15 06:35:59;;;;;;;10.15;5.60;;;;;;;30.51;26.74;99917.25;5050612;28;20021;-37
2021/09/15 06:38:25;;;;;;;10.75;5.80;;;;;;;31.03;25.85;99923.53;5048831;28;20024;-37
2021/09/15 06:40:50;;;;;;;9.73;6.15;;;;;;;31.35;25.68;99916.44;5049821;28;20021;-37
2021/09/15 06:43:16;;;;;;;11.43;5.75;;;;;;;31.70;25.44;99919.63;5049281;28;20120;-37
2021/09/15 06:45:41;;;;;;;12.52;6.13;;;;;;;31.96;25.43;99924.81;5049555;28;20029;-37
2021/09/15 06:48:07;;;;;;;9.48;5.80;;;;;;;32.13;24.86;99929.31;5048849;28;20074;-37
2021/09/15 06:50:32;;;;;;;11.75;5.78;;;;;;;32.49;24.50;99930.44;5049053;28;20021;-37
2021/09/15 06:52:58;;;;;;;13.13;6.50;;;;;;;32.49;24.59;99929.63;5049235;28;20192;-37
2021/09/15 06:55:23;;;;;;;13.95;6.20;;;;;;;32.62;24.62;99925.75;5049666;28;20404;-37
2021/09/15 06:57:50;;;;;;;13.93;6.32;;;;;;;32.37;24.83;99933.22;5049519;28;20029;-37
2021/09/15 07:00:18;;;;;;;11.80;6.72;;;;;;;32.48;24.89;99930.78;5049781;28;20031;-38
2021/09/15 07:02:44;;;;;;;11.80;6.40;;;;;;;32.38;24.92;99932.06;5048968;28;20067;-37
2021/09/15 07:05:09;;;;;;;10.80;7.25;;;;;;;32.22;24.90;99929.22;5047815;28;20044;-37
2021/09/15 07:07:35;;;;;;;12.65;7.05;;;;;;;32.40;24.72;99921.50;5047053;28;20111;-38
2021/09/15 07:10:00;;;;;;;13.80;6.47;;;;;;;32.60;24.54;99921.75;5048694;28;20033;-36
2021/09/15 07:12:26;;;;;;;15.60;6.70;;;;;;;32.91;24.61;99930.13;5048884;28;20064;-36
2021/09/15 07:14:51;;;;;;;11.25;6.22;;;;;;;33.11;23.87;99922.84;5049040;28;20791;-37
2021/09/15 07:17:17;;;;;;;9.45;6.20;;;;;;;33.49;23.35;99924.28;5049594;28;20263;-37
2021/09/15 07:19:42;;;;;;;8.40;5.72;;;;;;;33.84;23.19;99925.56;5047524;28;20033;-37
2021/09/15 07:22:08;;;;;;;9.18;6.03;;;;;;;34.04;23.00;99924.50;5049281;28;20390;-37
2021/09/15 07:24:33;;;;;;;10.05;5.95;;;;;;;34.12;22.81;99927.41;5049248;28;20027;-38
2021/09/15 07:26:58;;;;;;;9.20;6.20;;;;;;;34.23;22.53;99923.78;5049842;28;20040;-36
2021/09/15 07:29:24;;;;;;;13.25;6.28;;;;;;;33.76;22.67;99919.06;5049648;28;20029;-36
2021/09/15 07:31:49;;;;;;;12.45;6.68;;;;;;;33.67;22.72;99919.25;5049869;28;20090;-37
2021/09/15 07:34:15;;;;;;;11.30;5.70;;;;;;;33.95;22.75;99920.28;5050047;28;20028;-37
2021/09/15 07:36:40;;;;;;;13.15;5.80;;;;;;;34.43;22.17;99919.09;5049958;28;20426;-37
2021/09/15 07:39:06;;;;;;;8.38;6.25;;;;;;;34.61;21.46;99918.69;5048795;28;20369;-36
2021/09/15 07:41:32;;;;;;;12.80;5.88;;;;;;;34.65;21.80;99917.63;5048563;28;20068;-37
2021/09/15 07:43:58;;;;;;;8.00;5.45;;;;;;;34.77;22.04;99918.69;5050305;28;20043;-37
2021/09/15 07:46:23;;;;;;;14.05;5.60;;;;;;;34.77;22.12;99921.44;5050231;28;20029;-37
2021/09/15 07:48:49;;;;;;;9.45;5.43;;;;;;;35.33;21.35;99926.50;5048848;28;20025;-38
2021/09/15 07:51:15;;;;;;;10.05;5.47;;;;;;;35.60;21.05;99918.28;5050195;28;20056;-37
2021/09/15 07:53:41;;;;;;;7.55;5.28;;;;;;;35.52;20.44;99916.56;5049543;28;20028;-37
2021/09/15 07:56:07;;;;;;;9.43;5.05;;;;;;;35.45;19.98;99911.69;5049335;28;20033;-37
2021/09/15 07:58:32;;;;;;;6.75;5.22;;;;;;;35.42;20.72;99910.47;5049262;28;20052;-37
2021/09/15 08:00:57;;;;;;;8.98;5.05;;;;;;;35.68;20.07;99911.75;5049716;28;20024;-37
2021/09/15 08:03:23;;;;;;;10.70;5.20;;;;;;;35.85;19.51;99896.59;5049843;28;20043;-37
2021/09/15 08:05:48;;;;;;;10.27;5.22;;;;;;;35.64;19.24;99919.16;5049240;28;20106;-37
2021/09/15 08:08:14;;;;;;;7.57;4.90;;;;;;;36.03;19.75;99918.25;5049342;28;20025;-37
2021/09/15 08:10:40;;;;;;;8.13;4.82;;;;;;;35.94;19.21;99916.50;5050245;28;20031;-37
2021/09/15 08:13:05;;;;;;;7.43;5.30;;;;;;;36.52;18.78;99911.84;5049740;28;20049;-38
2021/09/15 08:15:31;;;;;;;8.40;5.07;;;;;;;36.37;18.20;99919.19;5049751;28;20032;-38
2021/09/15 08:17:56;;;;;;;8.25;5.20;;;;;;;36.91;18.47;99925.44;5049331;28;20052;-38
2021/09/15 08:20:22;;;;;;;8.40;4.97;;;;;;;37.17;18.50;99924.59;5049400;28;20035;-38
2021/09/15 08:22:47;;;;;;;9.88;5.07;;;;;;;36.81;18.38;99909.50;5049175;28;20540;-37
2021/09/15 08:25:13;;;;;;;7.63;4.97;;;;;;;37.22;17.90;99921.44;5049267;28;20029;-39
2021/09/15 08:27:38;;;;;;;9.07;5.18;;;;;;;37.21;17.84;99911.53;5049131;28;20029;-38
2021/09/15 08:30:04;;;;;;;8.00;5.03;;;;;;;37.15;17.80;99918.63;5049345;28;20396;-38
2021/09/15 08:32:30;;;;;;;11.57;5.03;;;;;;;37.33;17.75;99911.25;5048894;28;20353;-37
2021/09/15 08:34:55;;;;;;;7.35;4.78;;;;;;;36.82;17.70;99911.84;5048902;28;20143;-37
2021/09/15 08:37:21;;;;;;;9.52;4.82;;;;;;;37.29;17.41;99915.19;5049281;28;20346;-38
2021/09/15 08:39:46;;;;;;;10.10;4.53;;;;;;;36.96;17.35;99914.81;5047617;28;20029;-38
2021/09/15 08:42:11;;;;;;;7.15;4.97;;;;;;;36.75;17.62;99911.78;5049633;28;20102;-37
2021/09/15 08:44:37;;;;;;;6.72;4.78;;;;;;;36.91;17.63;99909.59;5049423;28;20029;-38
2021/09/15 08:47:03;;;;;;;6.68;4.70;;;;;;;36.64;17.93;99916.38;5049303;28;20033;-38
2021/09/15 08:49:29;;;;;;;6.53;4.90;;;;;;;36.82;17.80;99905.53;5049790;28;20028;-38
2021/09/15 08:51:55;;;;;;;8.55;4.70;;;;;;;36.48;17.43;99909.03;5049909;28;20485;-38
2021/09/15 08:54:20;;;;;;;9.80;4.70;;;;;;;37.15;17.32;99907.53;5053397;28;20032;-38
2021/09/15 08:56:46;;;;;;;8.10;4.85;;;;;;;37.17;17.76;99900.41;5053262;28;20036;-38
2021/09/15 08:59:11;;;;;;;7.88;4.95;;;;;;;36.08;18.08;99896.56;5053024;28;20033;-37
2021/09/15 09:01:39;;;;;;;8.13;4.93;;;;;;;35.79;18.34;99901.63;5053360;28;20146;-38
2021/09/15 09:04:04;;;;;;;6.85;4.82;;;;;;;36.42;18.29;99901.41;5052718;28;20048;-37
2021/09/15 09:06:33;;;;;;;6.18;5.05;;;;;;;36.62;18.02;99902.09;5052841;28;20020;-37
2021/09/15 09:09:00;;;;;;;9.35;5.30;;;;;;;36.76;18.14;99899.50;5053094;28;20035;-38
2021/09/15 09:11:30;;;;;;;9.00;5.03;;;;;;;35.92;18.29;99895.91;5035486;28;20094;-37
2021/09/15 09:14:00;;;;;;;7.85;5.03;;;;;;;36.70;18.06;99893.50;5052674;28;20056;-38
2021/09/15 09:16:45;;;;;;;7.82;5.07;;;;;;;37.06;17.82;99884.81;5053013;28;20063;-38
2021/09/15 09:19:12;;;;;;;9.23;5.50;;;;;;;36.82;17.62;99886.13;5052798;28;20459;-37
2021/09/15 09:21:39;;;;;;;7.22;4.90;;;;;;;37.29;17.55;99879.91;5053494;28;20025;-37
2021/09/15 09:24:07;;;;;;;8.00;5.25;;;;;;;37.26;17.31;99888.19;5053555;28;20024;-37
2021/09/15 09:27:03;;;;;;;8.00;5.30;;;;;;;37.56;17.39;99880.56;5053350;28;20047;-38
2021/09/15 09:29:30;;;;;;;9.02;5.00;;;;;;;38.00;17.04;99881.72;5052660;28;20039;-38
2021/09/15 09:32:03;;;;;;;9.47;5.50;;;;;;;37.87;17.27;99884.03;5053320;28;20389;-36
2021/09/15 09:34:38;;;;;;;8.30;5.30;;;;;;;37.84;17.31;99879.22;5052178;28;20314;-38
2021/09/15 09:37:16;;;;;;;8.35;5.28;;;;;;;38.08;17.63;99868.69;5051953;28;20037;-48
2021/09/15 09:39:45;;;;;;;10.40;5.50;;;;;;;38.34;17.05;99873.22;5053007;28;20025;-48
2021/09/15 09:42:23;;;;;;;7.97;5.82;;;;;;;37.66;17.65;99867.19;5052508;28;20062;-48
2021/09/15 09:44:49;;;;;;;9.40;5.25;;;;;;;38.12;17.74;99866.75;5052181;28;20500;-49
2021/09/15 09:47:19;;;;;;;10.70;5.50;;;;;;;37.70;16.90;99866.03;5051167;28;20029;-51
2021/09/15 09:49:58;;;;;;;9.32;5.20;;;;;;;37.38;18.02;99854.66;5052378;28;20453;-49
2021/09/15 09:52:23;;;;;;;11.45;5.97;;;;;;;37.88;17.30;99852.28;5052074;28;20040;-50
2021/09/15 09:54:58;;;;;;;12.23;5.95;;;;;;;38.21;16.98;99852.50;5050714;28;20028;-49
2021/09/15 09:57:23;;;;;;;7.63;5.90;;;;;;;38.46;17.02;99850.66;5050049;28;20485;-49
2021/09/15 09:59:48;;;;;;;8.30;5.85;;;;;;;38.03;17.52;99846.81;5048884;28;20032;-49
2021/09/15 10:02:14;;;;;;;10.15;5.95;;;;;;;38.21;17.60;99852.50;5048277;28;20499;-49
2021/09/15 10:04:40;;;;;;;14.90;5.65;;;;;;;38.06;17.04;99849.63;5049484;28;20025;-48
2021/09/15 10:07:06;;;;;;;7.40;5.25;;;;;;;38.37;17.15;99855.78;5049763;28;20036;-51
2021/09/15 10:09:31;;;;;;;8.73;5.60;;;;;;;38.38;17.03;99848.22;5051303;28;20040;-51
2021/09/15 10:11:57;;;;;;;8.38;5.38;;;;;;;38.57;17.14;99850.72;5050494;28;20025;-49
2021/09/15 10:14:22;;;;;;;10.07;5.40;;;;;;;38.80;16.70;99844.81;5050928;28;20027;-48
2021/09/15 10:17:13;;;;;;;7.78;5.40;;;;;;;38.46;17.27;99844.28;5050925;28;20415;-48
2021/09/15 10:19:41;;;;;;;9.98;5.75;;;;;;;38.51;16.85;99839.13;5045579;28;20116;-49
2021/09/15 10:22:07;;;;;;;7.25;5.43;;;;;;;38.43;17.24;99839.53;5051671;28;20520;-48
2021/09/15 10:24:47;;;;;;;9.30;5.53;;;;;;;38.02;17.75;99837.69;5051439;28;20040;-49
2021/09/15 10:27:13;;;;;;;9.65;5.40;;;;;;;37.00;18.33;99839.19;5051183;28;20028;-48
2021/09/15 10:29:42;;;;;;;9.32;5.28;;;;;;;37.27;18.68;99839.88;5051287;28;20021;-50
2021/09/15 10:32:11;;;;;;;11.77;5.30;;;;;;;37.47;18.22;99834.88;5051689;28;20032;-52
2021/09/15 10:34:36;;;;;;;9.63;5.70;;;;;;;36.83;18.88;99832.28;5052156;28;20102;-49
2021/09/15 10:37:02;;;;;;;11.13;5.93;;;;;;;36.86;18.80;99832.31;5051518;28;20477;-49
2021/09/15 10:39:28;;;;;;;8.73;5.70;;;;;;;36.54;19.28;99824.41;5051119;28;20339;-48
2021/09/15 10:41:54;;;;;;;6.80;5.40;;;;;;;35.77;20.40;99820.16;5051272;28;20110;-51
2021/09/15 10:44:21;;;;;;;10.00;5.93;;;;;;;35.99;20.33;99819.31;5049992;28;20032;-48
2021/09/15 10:46:47;;;;;;;14.02;6.28;;;;;;;36.43;19.81;99823.47;5051523;28;20452;-51
2021/09/15 10:49:21;;;;;;;12.07;5.47;;;;;;;36.27;18.78;99814.56;5051881;28;20021;-49
2021/09/15 10:52:08;;;;;;;9.93;5.70;;;;;;;36.71;18.38;99811.16;5051464;28;20036;-50
2021/09/15 10:54:47;;;;;;;9.38;5.63;;;;;;;37.15;17.77;99810.47;5051155;28;20538;-48
2021/09/15 10:57:14;;;;;;;11.55;5.60;;;;;;;36.95;18.44;99809.81;5051594;28;20021;-48
2021/09/15 10:59:52;;;;;;;11.25;5.75;;;;;;;37.15;18.71;99807.69;5050903;28;20033;-47
2021/09/15 11:02:41;;;;;;;10.38;5.88;;;;;;;35.99;18.88;99802.69;5051273;28;20021;-47
2021/09/15 11:05:25;;;;;;;9.98;5.40;;;;;;;35.89;19.25;99799.78;5045186;28;20143;-49
2021/09/15 11:07:51;;;;;;;13.63;5.72;;;;;;;35.43;19.91;99801.44;5050709;28;20102;-49
2021/09/15 11:10:31;;;;;;;12.38;6.10;;;;;;;35.17;20.41;99796.66;5050908;28;20488;-51
2021/09/15 11:12:58;;;;;;;7.97;5.60;;;;;;;35.38;19.75;99793.44;5050847;28;20048;-48
2021/09/15 11:15:27;;;;;;;11.48;5.47;;;;;;;35.13;19.78;99781.94;5050545;28;20017;-51
2021/09/15 11:17:52;;;;;;;9.15;6.35;;;;;;;34.53;20.60;99787.91;5051042;28;20404;-50
2021/09/15 11:20:22;;;;;;;15.13;5.80;;;;;;;34.71;20.51;99784.72;5050539;28;20024;-47
2021/09/15 11:22:49;;;;;;;9.50;6.22;;;;;;;34.18;21.84;99782.47;5050411;28;20072;-50
2021/09/15 11:25:18;;;;;;;11.85;6.25;;;;;;;33.77;22.01;99784.69;5050560;28;20457;-47
2021/09/15 11:28:16;;;;;;;10.23;5.85;;;;;;;33.60;22.86;99781.09;5050216;28;20029;-51
2021/09/15 11:30:56;;;;;;;16.45;6.45;;;;;;;33.42;22.89;99766.91;5048268;28;20395;-48
2021/09/15 11:33:26;;;;;;;11.80;5.85;;;;;;;33.44;22.71;99761.03;5050143;28;20051;-48